EDDW Airport Information

Runway Information
Runway 05 Length 2297 ft width 75 ft
Elevation 0 ft Threshold 0 ft Heading 52
Runway 23 Length 2297 ft Width 75 ft
Elevation 13 ft Threshold 0 ft Heading 232
Runway 09 Length 6693 ft width 148 ft
Elevation 13 ft Threshold 0 ft Heading 88
Runway 27 Length 6693 ft Width 148 ft
Elevation 14 ft Threshold 0 ft Heading 268
Airport Frequencies
Type AFIS Name INFO Frequency 125.1 MHZ
Type APP Name RADAR Frequency 124.8 MHZ
Type ATIS Name ATIS Frequency 117.45 MHZ
Type GND Name GND Frequency 121.75 MHZ
Type TWR Name TWR Frequency 120.325 MHZ
Airport Navaids
Type VOR-DME Name Bremen Frequency 117450 KHZ
Airport Weather Information & NOTAM
ADDS - METARS form results

(0846 UTC 20 April 2018)
 
METAR text: EDDW 200820Z 20007KT 170V230 CAVOK 22/10 Q1022 NOSIG
Conditions at: EDDW (BREMEN , DE) observed 0820 UTC 20 April 2018
Temperature: 22.0°C (72°F)
Dewpoint: 10.0°C (50°F) [RH = 46%]
Pressure (altimeter): 30.18 inches Hg (1022.0 mb)
Winds: from the SSW (200 degrees) at 8 MPH (7 knots; 3.6 m/s)
Visibility: 6 or more miles (10+ km)
Ceiling: ceiling and visibility are OK
Clouds: unknown
Weather: no significant weather observed at this time

METAR text: EDDW 200750Z 17006KT 140V200 CAVOK 20/13 Q1022 NOSIG
Conditions at: EDDW (BREMEN , DE) observed 0750 UTC 20 April 2018
Temperature: 20.0°C (68°F)
Dewpoint: 13.0°C (55°F) [RH = 64%]
Pressure (altimeter): 30.18 inches Hg (1022.0 mb)
Winds: from the S (170 degrees) at 7 MPH (6 knots; 3.1 m/s)
Visibility: 6 or more miles (10+ km)
Ceiling: ceiling and visibility are OK
Clouds: unknown
Weather: no significant weather observed at this time